sensor_id;sensor_type;location;lat;lon;timestamp;pressure;altitude;pressure_sealevel;temperature;humidity
71662;BME280;59500;49.588;18.018;2022-08-01T00:01:40;97935.91;;;12.22;86.93
71662;BME280;59500;49.588;18.018;2022-08-01T00:04:06;97933.44;;;12.20;86.64
71662;BME280;59500;49.588;18.018;2022-08-01T00:06:32;97922.78;;;12.20;86.14
71662;BME280;59500;49.588;18.018;2022-08-01T00:08:58;97921.28;;;12.18;86.18
71662;BME280;59500;49.588;18.018;2022-08-01T00:11:24;97917.31;;;12.14;86.42
71662;BME280;59500;49.588;18.018;2022-08-01T00:13:52;97922.00;;;12.12;86.14
71662;BME280;59500;49.588;18.018;2022-08-01T00:16:18;97923.19;;;12.09;85.92
71662;BME280;59500;49.588;18.018;2022-08-01T00:18:44;97928.03;;;12.06;86.06
71662;BME280;59500;49.588;18.018;2022-08-01T00:21:10;97916.03;;;12.01;85.93
71662;BME280;59500;49.588;18.018;2022-08-01T00:23:36;97922.72;;;11.97;86.30
71662;BME280;59500;49.588;18.018;2022-08-01T00:26:02;97912.06;;;11.97;86.14
71662;BME280;59500;49.588;18.018;2022-08-01T00:28:28;97907.09;;;11.94;86.68
71662;BME280;59500;49.588;18.018;2022-08-01T00:30:54;97912.59;;;11.93;86.45
71662;BME280;59500;49.588;18.018;2022-08-01T00:33:20;97919.41;;;11.95;86.06
71662;BME280;59500;49.588;18.018;2022-08-01T00:35:48;97907.75;;;11.96;86.68
71662;BME280;59500;49.588;18.018;2022-08-01T00:38:14;97908.13;;;11.93;86.71
71662;BME280;59500;49.588;18.018;2022-08-01T00:40:40;97912.16;;;11.89;86.35
71662;BME280;59500;49.588;18.018;2022-08-01T00:43:05;97912.97;;;11.90;86.81
71662;BME280;59500;49.588;18.018;2022-08-01T00:45:32;97908.94;;;11.94;87.18
71662;BME280;59500;49.588;18.018;2022-08-01T00:47:57;97908.75;;;11.95;86.87
71662;BME280;59500;49.588;18.018;2022-08-01T00:50:23;97911.41;;;11.95;86.78
71662;BME280;59500;49.588;18.018;2022-08-01T00:52:50;97921.25;;;11.95;86.88
71662;BME280;59500;49.588;18.018;2022-08-01T00:55:19;97913.78;;;11.90;86.71
71662;BME280;59500;49.588;18.018;2022-08-01T00:57:44;97915.09;;;11.86;86.64
71662;BME280;59500;49.588;18.018;2022-08-01T01:00:11;97917.78;;;11.86;86.96
71662;BME280;59500;49.588;18.018;2022-08-01T01:02:37;97918.13;;;11.83;86.98
71662;BME280;59500;49.588;18.018;2022-08-01T01:05:04;97919.31;;;11.80;86.61
71662;BME280;59500;49.588;18.018;2022-08-01T01:10:05;97924.81;;;11.79;86.76
71662;BME280;59500;49.588;18.018;2022-08-01T01:15:23;97925.50;;;11.73;86.57
71662;BME280;59500;49.588;18.018;2022-08-01T01:20:18;97922.19;;;11.71;86.56
71662;BME280;59500;49.588;18.018;2022-08-01T01:22:50;97917.88;;;11.70;86.04
71662;BME280;59500;49.588;18.018;2022-08-01T01:27:57;97916.19;;;11.69;86.76
71662;BME280;59500;49.588;18.018;2022-08-01T01:30:28;97923.19;;;11.70;86.76
71662;BME280;59500;49.588;18.018;2022-08-01T01:33:00;97917.88;;;11.70;86.34
71662;BME280;59500;49.588;18.018;2022-08-01T01:35:32;97911.22;;;11.66;85.99
71662;BME280;59500;49.588;18.018;2022-08-01T01:38:29;97905.78;;;11.59;86.75
71662;BME280;59500;49.588;18.018;2022-08-01T01:41:00;97906.28;;;11.54;86.23
71662;BME280;59500;49.588;18.018;2022-08-01T01:43:29;97904.31;;;11.48;86.67
71662;BME280;59500;49.588;18.018;2022-08-01T01:45:57;97905.50;;;11.46;86.29
71662;BME280;59500;49.588;18.018;2022-08-01T01:48:24;97905.66;;;11.44;86.40
71662;BME280;59500;49.588;18.018;2022-08-01T01:50:52;97904.69;;;11.45;86.55
71662;BME280;59500;49.588;18.018;2022-08-01T01:53:22;97908.81;;;11.48;86.74
71662;BME280;59500;49.588;18.018;2022-08-01T01:55:52;97914.66;;;11.51;86.72
71662;BME280;59500;49.588;18.018;2022-08-01T01:58:20;97916.13;;;11.54;86.55
71662;BME280;59500;49.588;18.018;2022-08-01T02:00:49;97913.47;;;11.54;86.17
71662;BME280;59500;49.588;18.018;2022-08-01T02:03:19;97910.81;;;11.54;86.63
71662;BME280;59500;49.588;18.018;2022-08-01T02:05:48;97911.47;;;11.56;86.52
71662;BME280;59500;49.588;18.018;2022-08-01T02:08:16;97900.81;;;11.56;86.62
71662;BME280;59500;49.588;18.018;2022-08-01T02:10:45;97899.78;;;11.57;86.40
71662;BME280;59500;49.588;18.018;2022-08-01T02:13:12;97909.09;;;11.61;86.61
71662;BME280;59500;49.588;18.018;2022-08-01T02:15:38;97911.75;;;11.61;85.56
71662;BME280;59500;49.588;18.018;2022-08-01T02:18:07;97905.25;;;11.64;86.00
71662;BME280;59500;49.588;18.018;2022-08-01T02:20:36;97908.56;;;11.66;85.86
71662;BME280;59500;49.588;18.018;2022-08-01T02:23:11;97909.38;;;11.66;86.09
71662;BME280;59500;49.588;18.018;2022-08-01T02:25:43;97905.53;;;11.69;85.70
71662;BME280;59500;49.588;18.018;2022-08-01T02:28:25;97909.53;;;11.73;85.75
71662;BME280;59500;49.588;18.018;2022-08-01T02:31:01;97912.50;;;11.78;85.71
71662;BME280;59500;49.588;18.018;2022-08-01T02:33:38;97913.16;;;11.80;86.16
71662;BME280;59500;49.588;18.018;2022-08-01T02:36:06;97904.53;;;11.78;85.80
71662;BME280;59500;49.588;18.018;2022-08-01T02:38:41;97901.88;;;11.70;85.76
71662;BME280;59500;49.588;18.018;2022-08-01T02:41:11;97901.88;;;11.70;85.57
71662;BME280;59500;49.588;18.018;2022-08-01T02:43:43;97900.56;;;11.66;85.55
71662;BME280;59500;49.588;18.018;2022-08-01T02:46:23;97903.28;;;11.57;86.00
71662;BME280;59500;49.588;18.018;2022-08-01T02:48:53;97905.81;;;11.51;85.54
71662;BME280;59500;49.588;18.018;2022-08-01T02:51:23;97900.16;;;11.46;85.85
71662;BME280;59500;49.588;18.018;2022-08-01T02:53:53;97902.34;;;11.42;85.58
71662;BME280;59500;49.588;18.018;2022-08-01T02:56:22;97896.72;;;11.37;85.77
71662;BME280;59500;49.588;18.018;2022-08-01T02:58:51;97895.38;;;11.33;85.95
71662;BME280;59500;49.588;18.018;2022-08-01T03:01:20;97902.72;;;11.31;85.63
71662;BME280;59500;49.588;18.018;2022-08-01T03:03:47;97905.38;;;11.31;85.89
71662;BME280;59500;49.588;18.018;2022-08-01T03:06:15;97899.22;;;11.30;85.98
71662;BME280;59500;49.588;18.018;2022-08-01T03:08:44;97901.22;;;11.28;86.13
71662;BME280;59500;49.588;18.018;2022-08-01T03:11:12;97902.25;;;11.27;86.05
71662;BME280;59500;49.588;18.018;2022-08-01T03:13:41;97906.09;;;11.25;85.73
71662;BME280;59500;49.588;18.018;2022-08-01T03:16:10;97907.75;;;11.26;85.58
71662;BME280;59500;49.588;18.018;2022-08-01T03:18:39;97904.91;;;11.27;85.75
71662;BME280;59500;49.588;18.018;2022-08-01T03:21:08;97902.41;;;11.26;86.27
71662;BME280;59500;49.588;18.018;2022-08-01T03:23:37;97897.91;;;11.26;85.33
71662;BME280;59500;49.588;18.018;2022-08-01T03:26:05;97902.25;;;11.27;86.01
71662;BME280;59500;49.588;18.018;2022-08-01T03:28:32;97897.59;;;11.29;85.41
71662;BME280;59500;49.588;18.018;2022-08-01T03:31:00;97894.06;;;11.29;85.99
71662;BME280;59500;49.588;18.018;2022-08-01T03:33:26;97892.41;;;11.36;85.32
71662;BME280;59500;49.588;18.018;2022-08-01T03:35:58;97904.13;;;11.58;85.65
71662;BME280;59500;49.588;18.018;2022-08-01T03:38:27;97899.19;;;11.78;85.13
71662;BME280;59500;49.588;18.018;2022-08-01T03:41:02;97898.47;;;11.84;84.12
71662;BME280;59500;49.588;18.018;2022-08-01T03:43:38;97901.31;;;11.83;84.56
71662;BME280;59500;49.588;18.018;2022-08-01T03:46:09;97906.81;;;11.81;84.05
71662;BME280;59500;49.588;18.018;2022-08-01T03:48:40;97899.34;;;11.76;83.72
71662;BME280;59500;49.588;18.018;2022-08-01T03:51:09;97903.19;;;11.74;83.70
71662;BME280;59500;49.588;18.018;2022-08-01T03:53:38;97900.53;;;11.74;84.09
71662;BME280;59500;49.588;18.018;2022-08-01T03:56:08;97909.19;;;11.76;84.35
71662;BME280;59500;49.588;18.018;2022-08-01T03:58:38;97913.34;;;11.78;84.38
71662;BME280;59500;49.588;18.018;2022-08-01T04:01:06;97910.50;;;11.80;83.78
71662;BME280;59500;49.588;18.018;2022-08-01T04:03:33;97904.84;;;12.06;84.44
71662;BME280;59500;49.588;18.018;2022-08-01T04:05:59;97905.97;;;12.73;83.79
71662;BME280;59500;49.588;18.018;2022-08-01T04:08:39;97908.44;;;13.57;82.34
71662;BME280;59500;49.588;18.018;2022-08-01T04:11:08;97898.78;;;14.14;79.37
71662;BME280;59500;49.588;18.018;2022-08-01T04:13:35;97908.94;;;14.61;76.90
71662;BME280;59500;49.588;18.018;2022-08-01T04:16:01;97906.31;;;15.31;75.50
71662;BME280;59500;49.588;18.018;2022-08-01T04:18:27;97908.34;;;16.25;73.00
71662;BME280;59500;49.588;18.018;2022-08-01T04:20:52;97902.19;;;17.18;69.69
71662;BME280;59500;49.588;18.018;2022-08-01T04:23:23;97906.81;;;18.08;65.96
71662;BME280;59500;49.588;18.018;2022-08-01T04:25:52;97909.97;;;18.61;63.50
71662;BME280;59500;49.588;18.018;2022-08-01T04:28:18;97897.50;;;19.17;61.00
71662;BME280;59500;49.588;18.018;2022-08-01T04:30:50;97899.88;;;19.69;59.36
71662;BME280;59500;49.588;18.018;2022-08-01T04:33:19;97900.59;;;19.95;58.13
71662;BME280;59500;49.588;18.018;2022-08-01T04:35:48;97894.50;;;19.99;57.83
71662;BME280;59500;49.588;18.018;2022-08-01T04:38:25;97896.34;;;19.99;57.03
71662;BME280;59500;49.588;18.018;2022-08-01T04:40:52;97898.06;;;20.54;56.25
71662;BME280;59500;49.588;18.018;2022-08-01T04:43:21;97899.06;;;21.18;54.54
71662;BME280;59500;49.588;18.018;2022-08-01T04:45:50;97894.72;;;21.53;52.99
71662;BME280;59500;49.588;18.018;2022-08-01T04:48:24;97896.25;;;20.78;54.31
71662;BME280;59500;49.588;18.018;2022-08-01T04:51:49;97899.41;;;19.72;57.03
71662;BME280;59500;49.588;18.018;2022-08-01T04:54:26;97900.03;;;19.12;59.53
71662;BME280;59500;49.588;18.018;2022-08-01T04:57:20;97896.06;;;18.39;60.62
71662;BME280;59500;49.588;18.018;2022-08-01T05:00:05;97899.56;;;18.08;62.90
71662;BME280;59500;49.588;18.018;2022-08-01T05:02:36;97908.59;;;17.75;63.90
71662;BME280;59500;49.588;18.018;2022-08-01T05:05:07;97903.13;;;17.44;64.41
71662;BME280;59500;49.588;18.018;2022-08-01T05:07:33;97906.50;;;17.19;65.80
71662;BME280;59500;49.588;18.018;2022-08-01T05:09:59;97913.34;;;17.02;66.87
71662;BME280;59500;49.588;18.018;2022-08-01T05:12:31;97910.69;;;16.95;67.66
71662;BME280;59500;49.588;18.018;2022-08-01T05:15:14;97911.50;;;16.89;67.48
71662;BME280;59500;49.588;18.018;2022-08-01T05:17:59;97920.19;;;16.84;68.86
71662;BME280;59500;49.588;18.018;2022-08-01T05:20:37;97919.75;;;16.74;69.19
71662;BME280;59500;49.588;18.018;2022-08-01T05:23:07;97920.56;;;16.68;69.43
71662;BME280;59500;49.588;18.018;2022-08-01T05:25:39;97914.38;;;16.54;69.65
71662;BME280;59500;49.588;18.018;2022-08-01T05:28:21;97920.97;;;16.51;69.90
71662;BME280;59500;49.588;18.018;2022-08-01T05:31:06;97914.38;;;16.47;70.39
71662;BME280;59500;49.588;18.018;2022-08-01T05:34:03;97922.41;;;16.34;70.95
71662;BME280;59500;49.588;18.018;2022-08-01T05:36:38;97918.47;;;16.30;71.27
71662;BME280;59500;49.588;18.018;2022-08-01T05:39:33;97916.19;;;16.33;72.60
71662;BME280;59500;49.588;18.018;2022-08-01T05:41:59;97919.94;;;16.46;72.59
71662;BME280;59500;49.588;18.018;2022-08-01T06:03:44;97913.63;;;19.24;66.49
71662;BME280;59500;49.588;18.018;2022-08-01T06:06:14;97916.72;;;19.46;65.42
71662;BME280;59500;49.588;18.018;2022-08-01T06:08:44;97916.56;;;19.59;63.98
71662;BME280;59500;49.588;18.018;2022-08-01T06:11:14;97916.91;;;20.00;65.25
71662;BME280;59500;49.588;18.018;2022-08-01T06:13:41;97922.88;;;20.32;62.49
71662;BME280;59500;49.588;18.018;2022-08-01T06:16:11;97919.19;;;20.45;61.89
71662;BME280;59500;49.588;18.018;2022-08-01T06:18:46;97924.13;;;20.48;62.03
71662;BME280;59500;49.588;18.018;2022-08-01T06:21:18;97918.56;;;20.61;61.67
71662;BME280;59500;49.588;18.018;2022-08-01T06:23:53;97928.59;;;21.96;60.37
71662;BME280;59500;49.588;18.018;2022-08-01T06:26:35;97921.47;;;23.87;55.99
71662;BME280;59500;49.588;18.018;2022-08-01T06:29:03;97925.03;;;24.64;52.82
71662;BME280;59500;49.588;18.018;2022-08-01T06:31:34;97922.81;;;24.61;50.90
71662;BME280;59500;49.588;18.018;2022-08-01T06:34:20;97925.09;;;24.20;50.80
71662;BME280;59500;49.588;18.018;2022-08-01T06:36:46;97929.50;;;24.26;51.43
71662;BME280;59500;49.588;18.018;2022-08-01T06:39:12;97921.25;;;25.03;50.71
71662;BME280;59500;49.588;18.018;2022-08-01T06:41:38;97927.66;;;26.39;48.17
71662;BME280;59500;49.588;18.018;2022-08-01T06:44:05;97924.09;;;27.62;46.10
71662;BME280;59500;49.588;18.018;2022-08-01T06:46:31;97918.25;;;28.49;43.28
71662;BME280;59500;49.588;18.018;2022-08-01T06:48:57;97926.19;;;28.90;41.98
71662;BME280;59500;49.588;18.018;2022-08-01T06:51:23;97925.97;;;29.45;40.51
71662;BME280;59500;49.588;18.018;2022-08-01T06:53:48;97914.88;;;29.55;39.23
71662;BME280;59500;49.588;18.018;2022-08-01T06:56:17;97918.16;;;29.57;40.11
71662;BME280;59500;49.588;18.018;2022-08-01T06:58:43;97919.16;;;29.13;39.91
71662;BME280;59500;49.588;18.018;2022-08-01T07:01:09;97910.69;;;28.75;41.21
71662;BME280;59500;49.588;18.018;2022-08-01T07:03:36;97911.19;;;28.43;42.85
71662;BME280;59500;49.588;18.018;2022-08-01T07:06:06;97916.66;;;28.38;43.34
71662;BME280;59500;49.588;18.018;2022-08-01T07:08:32;97917.06;;;28.16;42.51
71662;BME280;59500;49.588;18.018;2022-08-01T07:11:00;97911.16;;;27.83;42.63
71662;BME280;59500;49.588;18.018;2022-08-01T07:13:30;97909.59;;;27.66;42.81
71662;BME280;59500;49.588;18.018;2022-08-01T07:15:56;97901.69;;;27.70;42.71
71662;BME280;59500;49.588;18.018;2022-08-01T07:18:22;97912.34;;;27.66;41.90
71662;BME280;59500;49.588;18.018;2022-08-01T07:20:49;97894.88;;;27.62;43.18
71662;BME280;59500;49.588;18.018;2022-08-01T07:23:15;97901.88;;;27.94;41.48
71662;BME280;59500;49.588;18.018;2022-08-01T07:25:42;97902.59;;;28.15;40.95
71662;BME280;59500;49.588;18.018;2022-08-01T07:28:11;97907.41;;;28.73;42.25
71662;BME280;59500;49.588;18.018;2022-08-01T07:30:37;97915.88;;;29.40;38.84
71662;BME280;59500;49.588;18.018;2022-08-01T07:33:03;97910.00;;;30.00;37.20
71662;BME280;59500;49.588;18.018;2022-08-01T07:35:30;97913.06;;;30.93;37.40
71662;BME280;59500;49.588;18.018;2022-08-01T07:37:55;97906.16;;;31.70;36.61
71662;BME280;59500;49.588;18.018;2022-08-01T07:40:28;97905.56;;;31.73;35.45
71662;BME280;59500;49.588;18.018;2022-08-01T07:42:55;97900.59;;;31.62;35.24
71662;BME280;59500;49.588;18.018;2022-08-01T07:45:20;97906.88;;;31.62;35.54
71662;BME280;59500;49.588;18.018;2022-08-01T07:47:46;97903.53;;;31.19;34.85
71662;BME280;59500;49.588;18.018;2022-08-01T07:50:12;97896.34;;;30.38;35.92
71662;BME280;59500;49.588;18.018;2022-08-01T07:52:38;97898.63;;;29.64;37.03
71662;BME280;59500;49.588;18.018;2022-08-01T07:55:05;97903.88;;;29.36;37.48
71662;BME280;59500;49.588;18.018;2022-08-01T07:57:31;97895.41;;;29.33;38.94
71662;BME280;59500;49.588;18.018;2022-08-01T07:59:56;97907.94;;;29.39;39.70
71662;BME280;59500;49.588;18.018;2022-08-01T08:02:22;97897.09;;;29.28;39.86
71662;BME280;59500;49.588;18.018;2022-08-01T08:04:48;97890.72;;;29.04;39.30
71662;BME280;59500;49.588;18.018;2022-08-01T08:07:14;97891.81;;;28.74;40.38
71662;BME280;59500;49.588;18.018;2022-08-01T08:09:40;97898.09;;;28.35;39.91
71662;BME280;59500;49.588;18.018;2022-08-01T08:12:06;97907.78;;;28.17;41.09
71662;BME280;59500;49.588;18.018;2022-08-01T08:14:31;97907.78;;;28.17;41.08
71662;BME280;59500;49.588;18.018;2022-08-01T08:16:57;97909.72;;;28.11;42.35
71662;BME280;59500;49.588;18.018;2022-08-01T08:19:23;97904.31;;;28.51;40.77
71662;BME280;59500;49.588;18.018;2022-08-01T08:21:49;97905.16;;;28.80;39.97
71662;BME280;59500;49.588;18.018;2022-08-01T08:24:14;97909.28;;;28.78;40.46
71662;BME280;59500;49.588;18.018;2022-08-01T08:26:40;97920.63;;;28.66;41.65
71662;BME280;59500;49.588;18.018;2022-08-01T08:29:06;97911.94;;;28.54;42.15
71662;BME280;59500;49.588;18.018;2022-08-01T08:31:32;97922.88;;;28.54;42.91
71662;BME280;59500;49.588;18.018;2022-08-01T08:33:58;97917.81;;;28.26;41.96
71662;BME280;59500;49.588;18.018;2022-08-01T08:36:24;97922.75;;;28.24;40.55
71662;BME280;59500;49.588;18.018;2022-08-01T08:38:50;97921.84;;;28.84;40.92
71662;BME280;59500;49.588;18.018;2022-08-01T08:41:17;97922.28;;;29.55;38.83
71662;BME280;59500;49.588;18.018;2022-08-01T08:43:43;97922.41;;;29.74;38.30
71662;BME280;59500;49.588;18.018;2022-08-01T08:46:11;97924.25;;;29.78;37.13
71662;BME280;59500;49.588;18.018;2022-08-01T08:48:40;97930.78;;;29.82;36.19
71662;BME280;59500;49.588;18.018;2022-08-01T08:51:08;97930.81;;;30.01;37.18
71662;BME280;59500;49.588;18.018;2022-08-01T08:53:35;97929.38;;;29.85;36.02
71662;BME280;59500;49.588;18.018;2022-08-01T08:56:03;97927.34;;;29.66;35.29
71662;BME280;59500;49.588;18.018;2022-08-01T08:58:34;97930.75;;;30.06;37.74
71662;BME280;59500;49.588;18.018;2022-08-01T09:01:00;97928.88;;;30.45;37.18
71662;BME280;59500;49.588;18.018;2022-08-01T09:03:26;97937.19;;;31.10;35.73
71662;BME280;59500;49.588;18.018;2022-08-01T09:05:52;97931.13;;;31.60;34.80
71662;BME280;59500;49.588;18.018;2022-08-01T09:08:18;97926.97;;;32.41;34.83
71662;BME280;59500;49.588;18.018;2022-08-01T09:10:44;97928.88;;;32.90;31.75
71662;BME280;59500;49.588;18.018;2022-08-01T09:13:12;97926.94;;;33.13;32.00
71662;BME280;59500;49.588;18.018;2022-08-01T09:15:43;97934.84;;;33.37;32.35
71662;BME280;59500;49.588;18.018;2022-08-01T09:18:30;97932.69;;;33.26;32.37
71662;BME280;59500;49.588;18.018;2022-08-01T09:23:44;97930.94;;;31.98;32.93
71662;BME280;59500;49.588;18.018;2022-08-01T09:26:16;97938.56;;;31.27;35.33
71662;BME280;59500;49.588;18.018;2022-08-01T09:28:44;97939.41;;;30.76;34.99
71662;BME280;59500;49.588;18.018;2022-08-01T09:31:16;97933.09;;;30.37;35.38
71662;BME280;59500;49.588;18.018;2022-08-01T09:36:16;97930.44;;;29.89;37.51
71662;BME280;59500;49.588;18.018;2022-08-01T09:38:42;97934.44;;;29.73;37.85
71662;BME280;59500;49.588;18.018;2022-08-01T09:41:08;97939.69;;;29.69;37.37
71662;BME280;59500;49.588;18.018;2022-08-01T09:43:34;97933.19;;;29.60;38.49
71662;BME280;59500;49.588;18.018;2022-08-01T09:46:05;97940.34;;;29.32;39.52
71662;BME280;59500;49.588;18.018;2022-08-01T09:48:33;97940.88;;;28.99;40.45
71662;BME280;59500;49.588;18.018;2022-08-01T09:51:00;97951.59;;;28.56;40.70
71662;BME280;59500;49.588;18.018;2022-08-01T09:53:25;97945.75;;;28.18;43.84
71662;BME280;59500;49.588;18.018;2022-08-01T09:55:52;97950.53;;;27.82;43.63
71662;BME280;59500;49.588;18.018;2022-08-01T09:58:18;97950.06;;;27.59;43.78
71662;BME280;59500;49.588;18.018;2022-08-01T10:00:58;97946.53;;;27.49;43.99
71662;BME280;59500;49.588;18.018;2022-08-01T10:03:26;97946.81;;;27.32;45.71
71662;BME280;59500;49.588;18.018;2022-08-01T10:05:52;97954.19;;;27.00;46.21
71662;BME280;59500;49.588;18.018;2022-08-01T10:08:19;97954.47;;;26.73;47.17
71662;BME280;59500;49.588;18.018;2022-08-01T10:11:08;97954.13;;;26.54;47.31
71662;BME280;59500;49.588;18.018;2022-08-01T10:13:34;97952.22;;;26.45;47.72
71662;BME280;59500;49.588;18.018;2022-08-01T10:16:01;97952.47;;;26.38;44.07
71662;BME280;59500;49.588;18.018;2022-08-01T10:18:31;97948.84;;;26.17;44.08
71662;BME280;59500;49.588;18.018;2022-08-01T10:20:59;97944.13;;;25.92;42.89
71662;BME280;59500;49.588;18.018;2022-08-01T10:23:34;97956.03;;;25.75;44.65
71662;BME280;59500;49.588;18.018;2022-08-01T10:26:01;97944.50;;;25.63;43.14
71662;BME280;59500;49.588;18.018;2022-08-01T10:28:30;97951.38;;;25.71;44.01
71662;BME280;59500;49.588;18.018;2022-08-01T10:31:00;97945.41;;;25.79;43.05
71662;BME280;59500;49.588;18.018;2022-08-01T10:33:32;97954.44;;;25.85;43.29
71662;BME280;59500;49.588;18.018;2022-08-01T10:36:02;97950.72;;;26.01;45.72
71662;BME280;59500;49.588;18.018;2022-08-01T10:38:29;97949.06;;;25.95;45.65
71662;BME280;59500;49.588;18.018;2022-08-01T10:40:57;97946.34;;;26.00;45.70
71662;BME280;59500;49.588;18.018;2022-08-01T10:43:25;97952.38;;;26.02;43.63
71662;BME280;59500;49.588;18.018;2022-08-01T10:45:51;97941.16;;;25.93;42.88
71662;BME280;59500;49.588;18.018;2022-08-01T10:51:07;97942.13;;;25.77;43.33
71662;BME280;59500;49.588;18.018;2022-08-01T10:53:33;97943.03;;;25.88;41.46
71662;BME280;59500;49.588;18.018;2022-08-01T10:56:02;97943.09;;;25.98;42.95
71662;BME280;59500;49.588;18.018;2022-08-01T10:58:32;97936.88;;;26.18;42.30
71662;BME280;59500;49.588;18.018;2022-08-01T11:01:18;97938.94;;;26.84;41.80
71662;BME280;59500;49.588;18.018;2022-08-01T11:14:27;97930.66;;;29.68;35.71
71662;BME280;59500;49.588;18.018;2022-08-01T11:16:53;97930.78;;;29.53;36.07
71662;BME280;59500;49.588;18.018;2022-08-01T11:19:19;97921.34;;;29.64;35.71
71662;BME280;59500;49.588;18.018;2022-08-01T11:27:21;97922.75;;;29.62;35.38
71662;BME280;59500;49.588;18.018;2022-08-01T11:32:54;97922.00;;;28.63;36.98
71662;BME280;59500;49.588;18.018;2022-08-01T11:35:24;97923.34;;;28.21;38.69
71662;BME280;59500;49.588;18.018;2022-08-01T11:37:51;97913.06;;;27.98;40.46
71662;BME280;59500;49.588;18.018;2022-08-01T11:40:17;97918.03;;;27.85;42.62
71662;BME280;59500;49.588;18.018;2022-08-01T11:42:44;97916.13;;;27.81;42.45
71662;BME280;59500;49.588;18.018;2022-08-01T11:45:10;97916.13;;;27.81;39.92
71662;BME280;59500;49.588;18.018;2022-08-01T11:47:50;97913.88;;;27.98;38.90
71662;BME280;59500;49.588;18.018;2022-08-01T11:53:05;97907.31;;;29.18;37.01
71662;BME280;59500;49.588;18.018;2022-08-01T11:55:33;97898.88;;;29.91;36.33
71662;BME280;59500;49.588;18.018;2022-08-01T11:58:04;97909.44;;;30.60;34.60
71662;BME280;59500;49.588;18.018;2022-08-01T12:00:31;97912.34;;;31.02;33.51
71662;BME280;59500;49.588;18.018;2022-08-01T12:03:06;97897.31;;;31.60;33.04
71662;BME280;59500;49.588;18.018;2022-08-01T12:05:34;97893.03;;;31.53;32.59
71662;BME280;59500;49.588;18.018;2022-08-01T12:08:01;97894.56;;;31.73;33.37
71662;BME280;59500;49.588;18.018;2022-08-01T12:10:30;97899.59;;;31.25;33.66
71662;BME280;59500;49.588;18.018;2022-08-01T12:13:05;97906.84;;;30.69;33.76
71662;BME280;59500;49.588;18.018;2022-08-01T12:15:34;97903.28;;;30.11;34.90
71662;BME280;59500;49.588;18.018;2022-08-01T12:18:07;97901.28;;;29.74;37.86
71662;BME280;59500;49.588;18.018;2022-08-01T12:20:35;97898.75;;;29.29;39.46
71662;BME280;59500;49.588;18.018;2022-08-01T12:23:06;97904.94;;;28.77;41.56
71662;BME280;59500;49.588;18.018;2022-08-01T12:25:32;97900.88;;;28.30;42.13
71662;BME280;59500;49.588;18.018;2022-08-01T12:28:03;97913.69;;;27.69;42.37
71662;BME280;59500;49.588;18.018;2022-08-01T12:30:31;97914.91;;;27.22;44.57
71662;BME280;59500;49.588;18.018;2022-08-01T12:32:57;97923.38;;;26.84;46.87
71662;BME280;59500;49.588;18.018;2022-08-01T12:35:26;97921.66;;;26.48;48.79
71662;BME280;59500;49.588;18.018;2022-08-01T12:37:57;97930.03;;;26.05;50.34
71662;BME280;59500;49.588;18.018;2022-08-01T12:40:32;97933.84;;;25.56;49.92
71662;BME280;59500;49.588;18.018;2022-08-01T12:43:05;97936.63;;;25.19;51.63
71662;BME280;59500;49.588;18.018;2022-08-01T12:45:37;97949.00;;;24.72;53.39
71662;BME280;59500;49.588;18.018;2022-08-01T12:48:09;97952.56;;;24.24;53.81
71662;BME280;59500;49.588;18.018;2022-08-01T12:50:38;97952.50;;;23.74;56.40
71662;BME280;59500;49.588;18.018;2022-08-01T12:53:04;97964.59;;;23.28;58.77
71662;BME280;59500;49.588;18.018;2022-08-01T12:55:31;97970.41;;;22.86;60.76
71662;BME280;59500;49.588;18.018;2022-08-01T12:58:09;97973.88;;;22.52;63.50
71662;BME280;59500;49.588;18.018;2022-08-01T13:00:38;97973.41;;;22.27;66.15
71662;BME280;59500;49.588;18.018;2022-08-01T13:05:45;97959.28;;;22.13;68.70
71662;BME280;59500;49.588;18.018;2022-08-01T13:08:13;97960.44;;;22.29;68.53
71662;BME280;59500;49.588;18.018;2022-08-01T13:10:40;97972.16;;;22.46;68.75
71662;BME280;59500;49.588;18.018;2022-08-01T13:13:07;97970.44;;;22.57;68.31
71662;BME280;59500;49.588;18.018;2022-08-01T13:15:35;97962.66;;;22.61;67.95
71662;BME280;59500;49.588;18.018;2022-08-01T13:18:22;97955.22;;;22.85;68.55
71662;BME280;59500;49.588;18.018;2022-08-01T13:20:49;97946.75;;;23.15;68.24
71662;BME280;59500;49.588;18.018;2022-08-01T13:23:17;97952.66;;;23.46;69.78
71662;BME280;59500;49.588;18.018;2022-08-01T13:25:55;97937.78;;;23.70;65.61
71662;BME280;59500;49.588;18.018;2022-08-01T13:28:26;97933.66;;;23.85;63.38
71662;BME280;59500;49.588;18.018;2022-08-01T13:31:04;97938.91;;;23.91;63.74
71662;BME280;59500;49.588;18.018;2022-08-01T13:33:51;97941.78;;;24.07;65.21
71662;BME280;59500;49.588;18.018;2022-08-01T13:36:16;97934.78;;;24.38;64.69
71662;BME280;59500;49.588;18.018;2022-08-01T13:38:42;97946.72;;;24.59;63.50
71662;BME280;59500;49.588;18.018;2022-08-01T13:41:08;97952.31;;;24.79;61.60
71662;BME280;59500;49.588;18.018;2022-08-01T13:43:34;97946.41;;;24.88;60.79
71662;BME280;59500;49.588;18.018;2022-08-01T13:46:01;97945.25;;;25.11;59.82
71662;BME280;59500;49.588;18.018;2022-08-01T13:48:26;97940.22;;;25.25;59.69
71662;BME280;59500;49.588;18.018;2022-08-01T13:50:52;97932.56;;;25.22;58.93
71662;BME280;59500;49.588;18.018;2022-08-01T13:53:18;97928.19;;;25.21;58.47
71662;BME280;59500;49.588;18.018;2022-08-01T13:55:44;97935.84;;;25.24;57.76
71662;BME280;59500;49.588;18.018;2022-08-01T13:58:10;97930.03;;;25.15;57.29
71662;BME280;59500;49.588;18.018;2022-08-01T14:00:36;97923.38;;;24.95;56.21
71662;BME280;59500;49.588;18.018;2022-08-01T14:03:02;97930.50;;;24.69;56.09
71662;BME280;59500;49.588;18.018;2022-08-01T14:05:27;97932.06;;;24.38;55.60